sensor_id;sensor_type;location;lat;lon;timestamp;pressure;altitude;pressure_sealevel;temperature;humidity
36258;BME280;22294;52.044;4.582;2023-02-22T00:00:14;77216.91;;;-144.37;100.00
36258;BME280;22294;52.044;4.582;2023-02-22T00:02:45;77221.00;;;-144.37;100.00
36258;BME280;22294;52.044;4.582;2023-02-22T00:05:10;77231.22;;;-144.37;100.00
36258;BME280;22294;52.044;4.582;2023-02-22T00:07:38;77237.34;;;-144.37;100.00
36258;BME280;22294;52.044;4.582;2023-02-22T00:10:03;77249.63;;;-144.37;100.00
36258;BME280;22294;52.044;4.582;2023-02-22T00:12:33;77241.44;;;-144.37;100.00
36258;BME280;22294;52.044;4.582;2023-02-22T00:14:59;77229.19;;;-144.37;100.00
36258;BME280;22294;52.044;4.582;2023-02-22T00:17:24;77218.94;;;-144.37;100.00
36258;BME280;22294;52.044;4.582;2023-02-22T00:19:50;77235.31;;;-144.37;100.00
36258;BME280;22294;52.044;4.582;2023-02-22T00:22:15;77227.13;;;-144.37;100.00
36258;BME280;22294;52.044;4.582;2023-02-22T00:24:43;77221.00;;;-144.37;100.00
36258;BME280;22294;52.044;4.582;2023-02-22T00:27:08;77223.03;;;-144.37;100.00
36258;BME280;22294;52.044;4.582;2023-02-22T00:29:35;77221.00;;;-144.37;100.00
36258;BME280;22294;52.044;4.582;2023-02-22T00:32:00;77247.59;;;-144.37;100.00
36258;BME280;22294;52.044;4.582;2023-02-22T00:34:25;77255.78;;;-144.37;100.00
36258;BME280;22294;52.044;4.582;2023-02-22T00:36:51;77245.53;;;-144.37;100.00
36258;BME280;22294;52.044;4.582;2023-02-22T00:39:16;77237.34;;;-144.37;100.00
36258;BME280;22294;52.044;4.582;2023-02-22T00:41:42;77235.31;;;-144.37;100.00
36258;BME280;22294;52.044;4.582;2023-02-22T00:44:07;77239.41;;;-144.37;100.00
36258;BME280;22294;52.044;4.582;2023-02-22T00:46:33;77239.41;;;-144.37;100.00
36258;BME280;22294;52.044;4.582;2023-02-22T00:48:58;77225.09;;;-144.37;100.00
36258;BME280;22294;52.044;4.582;2023-02-22T00:51:26;77239.41;;;-144.37;100.00
36258;BME280;22294;52.044;4.582;2023-02-22T00:53:52;77239.41;;;-144.37;100.00
36258;BME280;22294;52.044;4.582;2023-02-22T00:56:18;77239.41;;;-144.37;100.00
36258;BME280;22294;52.044;4.582;2023-02-22T00:58:43;77229.19;;;-144.37;100.00
36258;BME280;22294;52.044;4.582;2023-02-22T01:01:09;77225.09;;;-144.37;100.00
36258;BME280;22294;52.044;4.582;2023-02-22T01:03:34;77227.13;;;-144.37;100.00
36258;BME280;22294;52.044;4.582;2023-02-22T01:05:59;77216.91;;;-144.37;100.00
36258;BME280;22294;52.044;4.582;2023-02-22T01:08:25;77223.03;;;-144.37;100.00
36258;BME280;22294;52.044;4.582;2023-02-22T01:10:50;77221.00;;;-144.37;100.00
36258;BME280;22294;52.044;4.582;2023-02-22T01:13:16;77208.72;;;-144.37;100.00
36258;BME280;22294;52.044;4.582;2023-02-22T01:15:44;77233.25;;;-144.37;100.00
36258;BME280;22294;52.044;4.582;2023-02-22T01:18:10;77216.91;;;-144.37;100.00
36258;BME280;22294;52.044;4.582;2023-02-22T01:20:37;77223.03;;;-144.37;100.00
36258;BME280;22294;52.044;4.582;2023-02-22T01:23:04;77245.53;;;-144.37;100.00
36258;BME280;22294;52.044;4.582;2023-02-22T01:25:31;77235.31;;;-144.37;100.00
36258;BME280;22294;52.044;4.582;2023-02-22T01:27:59;77233.25;;;-144.37;100.00
36258;BME280;22294;52.044;4.582;2023-02-22T01:30:28;77227.13;;;-144.37;100.00
36258;BME280;22294;52.044;4.582;2023-02-22T01:32:54;77221.00;;;-144.37;100.00
36258;BME280;22294;52.044;4.582;2023-02-22T01:35:24;77210.75;;;-144.37;100.00
36258;BME280;22294;52.044;4.582;2023-02-22T01:37:50;77214.84;;;-144.37;100.00
36258;BME280;22294;52.044;4.582;2023-02-22T01:40:21;77210.75;;;-144.37;100.00
36258;BME280;22294;52.044;4.582;2023-02-22T01:42:50;77208.72;;;-144.37;100.00
36258;BME280;22294;52.044;4.582;2023-02-22T01:47:55;77206.66;;;-144.37;100.00
36258;BME280;22294;52.044;4.582;2023-02-22T01:50:22;77206.66;;;-144.37;100.00
36258;BME280;22294;52.044;4.582;2023-02-22T01:52:48;77218.94;;;-144.37;100.00
36258;BME280;22294;52.044;4.582;2023-02-22T01:55:14;77227.13;;;-144.37;100.00
36258;BME280;22294;52.044;4.582;2023-02-22T01:57:41;77227.13;;;-144.37;100.00
36258;BME280;22294;52.044;4.582;2023-02-22T02:00:10;77223.03;;;-144.37;100.00
36258;BME280;22294;52.044;4.582;2023-02-22T02:02:39;77218.94;;;-144.37;100.00
36258;BME280;22294;52.044;4.582;2023-02-22T02:05:06;77231.22;;;-144.37;100.00
36258;BME280;22294;52.044;4.582;2023-02-22T02:07:33;77225.09;;;-144.37;100.00
36258;BME280;22294;52.044;4.582;2023-02-22T02:10:03;77221.00;;;-144.37;100.00
36258;BME280;22294;52.044;4.582;2023-02-22T02:12:31;77216.91;;;-144.37;100.00
36258;BME280;22294;52.044;4.582;2023-02-22T02:15:28;77231.22;;;-144.37;100.00
36258;BME280;22294;52.044;4.582;2023-02-22T02:17:57;77239.41;;;-144.37;100.00
36258;BME280;22294;52.044;4.582;2023-02-22T02:32:34;77221.00;;;-144.37;100.00
36258;BME280;22294;52.044;4.582;2023-02-22T02:35:25;77214.84;;;-144.37;100.00
36258;BME280;22294;52.044;4.582;2023-02-22T02:43:29;77204.63;;;-144.37;100.00
36258;BME280;22294;52.044;4.582;2023-02-22T02:46:13;77216.91;;;-144.37;100.00
36258;BME280;22294;52.044;4.582;2023-02-22T02:48:44;77216.91;;;-144.37;100.00
36258;BME280;22294;52.044;4.582;2023-02-22T02:51:12;77214.84;;;-144.37;100.00
36258;BME280;22294;52.044;4.582;2023-02-22T02:53:43;77239.41;;;-144.37;100.00
36258;BME280;22294;52.044;4.582;2023-02-22T02:56:10;77239.41;;;-144.37;100.00
36258;BME280;22294;52.044;4.582;2023-02-22T02:58:49;77239.41;;;-144.37;100.00
36258;BME280;22294;52.044;4.582;2023-02-22T03:01:42;77231.22;;;-144.37;100.00
36258;BME280;22294;52.044;4.582;2023-02-22T03:09:21;77208.72;;;-144.37;100.00
36258;BME280;22294;52.044;4.582;2023-02-22T03:18:08;77218.94;;;-144.37;100.00
36258;BME280;22294;52.044;4.582;2023-02-22T03:20:28;77214.84;;;-144.37;100.00
36258;BME280;22294;52.044;4.582;2023-02-22T03:23:14;77223.03;;;-144.37;100.00
36258;BME280;22294;52.044;4.582;2023-02-22T03:25:49;77214.84;;;-144.37;100.00
36258;BME280;22294;52.044;4.582;2023-02-22T03:28:18;77218.94;;;-144.37;100.00
36258;BME280;22294;52.044;4.582;2023-02-22T03:30:56;77221.00;;;-144.37;100.00
36258;BME280;22294;52.044;4.582;2023-02-22T03:33:27;77223.03;;;-144.37;100.00
36258;BME280;22294;52.044;4.582;2023-02-22T03:36:03;77221.00;;;-144.37;100.00
36258;BME280;22294;52.044;4.582;2023-02-22T03:38:31;77225.09;;;-144.37;100.00
36258;BME280;22294;52.044;4.582;2023-02-22T03:41:00;77216.91;;;-144.37;100.00
36258;BME280;22294;52.044;4.582;2023-02-22T03:43:34;77241.44;;;-144.37;100.00
36258;BME280;22294;52.044;4.582;2023-02-22T03:46:02;77247.59;;;-144.37;100.00
36258;BME280;22294;52.044;4.582;2023-02-22T03:51:15;77225.09;;;-144.37;100.00
36258;BME280;22294;52.044;4.582;2023-02-22T03:53:42;77218.94;;;-144.37;100.00
36258;BME280;22294;52.044;4.582;2023-02-22T03:56:12;77229.19;;;-144.37;100.00
36258;BME280;22294;52.044;4.582;2023-02-22T03:58:40;77223.03;;;-144.37;100.00
36258;BME280;22294;52.044;4.582;2023-02-22T04:01:09;77221.00;;;-144.37;100.00
36258;BME280;22294;52.044;4.582;2023-02-22T04:03:34;77221.00;;;-144.37;100.00
36258;BME280;22294;52.044;4.582;2023-02-22T04:06:00;77218.94;;;-144.37;100.00
36258;BME280;22294;52.044;4.582;2023-02-22T04:08:25;77206.66;;;-144.37;100.00
36258;BME280;22294;52.044;4.582;2023-02-22T04:10:51;77208.72;;;-144.37;100.00
36258;BME280;22294;52.044;4.582;2023-02-22T04:13:17;77216.91;;;-144.37;100.00
36258;BME280;22294;52.044;4.582;2023-02-22T04:15:43;77221.00;;;-144.37;100.00
36258;BME280;22294;52.044;4.582;2023-02-22T04:18:08;77235.31;;;-144.37;100.00
36258;BME280;22294;52.044;4.582;2023-02-22T04:20:34;77239.41;;;-144.37;100.00
36258;BME280;22294;52.044;4.582;2023-02-22T04:22:59;77247.59;;;-144.37;100.00
36258;BME280;22294;52.044;4.582;2023-02-22T04:25:25;77229.19;;;-144.37;100.00
36258;BME280;22294;52.044;4.582;2023-02-22T04:27:50;77227.13;;;-144.37;100.00
36258;BME280;22294;52.044;4.582;2023-02-22T04:30:17;77227.13;;;-144.37;100.00
36258;BME280;22294;52.044;4.582;2023-02-22T04:32:43;77218.94;;;-144.37;100.00
36258;BME280;22294;52.044;4.582;2023-02-22T04:35:08;77212.81;;;-144.37;100.00
36258;BME280;22294;52.044;4.582;2023-02-22T04:37:34;77208.72;;;-144.37;100.00
36258;BME280;22294;52.044;4.582;2023-02-22T04:40:00;77225.09;;;-144.37;100.00
36258;BME280;22294;52.044;4.582;2023-02-22T04:42:27;77223.03;;;-144.37;100.00
36258;BME280;22294;52.044;4.582;2023-02-22T04:44:52;77241.44;;;-144.37;100.00
36258;BME280;22294;52.044;4.582;2023-02-22T04:47:17;77227.13;;;-144.37;100.00
36258;BME280;22294;52.044;4.582;2023-02-22T04:49:43;77221.00;;;-144.37;100.00
36258;BME280;22294;52.044;4.582;2023-02-22T04:52:09;77233.25;;;-144.37;100.00
36258;BME280;22294;52.044;4.582;2023-02-22T04:54:35;77249.63;;;-144.37;100.00
36258;BME280;22294;52.044;4.582;2023-02-22T04:57:00;77257.81;;;-144.37;100.00
36258;BME280;22294;52.044;4.582;2023-02-22T04:59:25;77249.63;;;-144.37;100.00
36258;BME280;22294;52.044;4.582;2023-02-22T05:01:51;77237.34;;;-144.37;100.00
36258;BME280;22294;52.044;4.582;2023-02-22T05:04:16;77239.41;;;-144.37;100.00
36258;BME280;22294;52.044;4.582;2023-02-22T05:06:41;77227.13;;;-144.37;100.00
36258;BME280;22294;52.044;4.582;2023-02-22T05:09:07;77225.09;;;-144.37;100.00
36258;BME280;22294;52.044;4.582;2023-02-22T05:11:32;77247.59;;;-144.37;100.00
36258;BME280;22294;52.044;4.582;2023-02-22T05:13:57;77241.44;;;-144.37;100.00
36258;BME280;22294;52.044;4.582;2023-02-22T05:16:23;77231.22;;;-144.37;100.00
36258;BME280;22294;52.044;4.582;2023-02-22T05:18:48;77218.94;;;-144.37;100.00
36258;BME280;22294;52.044;4.582;2023-02-22T05:21:13;77214.84;;;-144.37;100.00
36258;BME280;22294;52.044;4.582;2023-02-22T05:23:39;77221.00;;;-144.37;100.00
36258;BME280;22294;52.044;4.582;2023-02-22T05:26:05;77216.91;;;-144.37;100.00
36258;BME280;22294;52.044;4.582;2023-02-22T05:28:31;77204.63;;;-144.37;100.00
36258;BME280;22294;52.044;4.582;2023-02-22T05:30:56;77186.22;;;-144.37;100.00
36258;BME280;22294;52.044;4.582;2023-02-22T05:33:22;77210.75;;;-144.37;100.00
36258;BME280;22294;52.044;4.582;2023-02-22T05:35:47;77245.53;;;-144.37;100.00
36258;BME280;22294;52.044;4.582;2023-02-22T05:38:13;77241.44;;;-144.37;100.00
36258;BME280;22294;52.044;4.582;2023-02-22T05:40:40;77223.03;;;-144.37;100.00
36258;BME280;22294;52.044;4.582;2023-02-22T05:43:06;77221.00;;;-144.37;100.00
36258;BME280;22294;52.044;4.582;2023-02-22T05:45:31;77198.50;;;-144.37;100.00
36258;BME280;22294;52.044;4.582;2023-02-22T05:47:57;77202.56;;;-144.37;100.00
36258;BME280;22294;52.044;4.582;2023-02-22T05:50:22;77204.63;;;-144.37;100.00
36258;BME280;22294;52.044;4.582;2023-02-22T05:52:48;77196.44;;;-144.37;100.00
36258;BME280;22294;52.044;4.582;2023-02-22T05:55:16;77196.44;;;-144.37;100.00
36258;BME280;22294;52.044;4.582;2023-02-22T05:57:42;77186.22;;;-144.37;100.00
36258;BME280;22294;52.044;4.582;2023-02-22T06:00:08;77180.06;;;-144.37;100.00
36258;BME280;22294;52.044;4.582;2023-02-22T06:02:33;77186.22;;;-144.37;100.00
36258;BME280;22294;52.044;4.582;2023-02-22T06:04:59;77184.16;;;-144.37;100.00
36258;BME280;22294;52.044;4.582;2023-02-22T06:07:25;77175.97;;;-144.37;100.00
36258;BME280;22294;52.044;4.582;2023-02-22T06:09:51;77157.56;;;-144.37;100.00
36258;BME280;22294;52.044;4.582;2023-02-22T06:12:17;77153.47;;;-144.37;100.00
36258;BME280;22294;52.044;4.582;2023-02-22T06:14:43;77161.66;;;-144.37;100.00
36258;BME280;22294;52.044;4.582;2023-02-22T06:17:11;77161.66;;;-144.37;100.00
36258;BME280;22294;52.044;4.582;2023-02-22T06:19:36;77184.16;;;-144.37;100.00
36258;BME280;22294;52.044;4.582;2023-02-22T06:22:02;77167.81;;;-144.37;100.00
36258;BME280;22294;52.044;4.582;2023-02-22T06:24:27;77165.75;;;-144.37;100.00
36258;BME280;22294;52.044;4.582;2023-02-22T06:26:54;77163.72;;;-144.37;100.00
36258;BME280;22294;52.044;4.582;2023-02-22T06:29:21;77163.72;;;-144.37;100.00
36258;BME280;22294;52.044;4.582;2023-02-22T06:31:46;77171.91;;;-144.37;100.00
36258;BME280;22294;52.044;4.582;2023-02-22T06:34:12;77178.03;;;-144.37;100.00
36258;BME280;22294;52.044;4.582;2023-02-22T06:36:37;77178.03;;;-144.37;100.00
36258;BME280;22294;52.044;4.582;2023-02-22T06:39:02;77186.22;;;-144.37;100.00
36258;BME280;22294;52.044;4.582;2023-02-22T06:41:27;77184.16;;;-144.37;100.00
36258;BME280;22294;52.044;4.582;2023-02-22T06:43:53;77188.25;;;-144.37;100.00
36258;BME280;22294;52.044;4.582;2023-02-22T06:46:18;77182.13;;;-144.37;100.00
36258;BME280;22294;52.044;4.582;2023-02-22T06:48:45;77178.03;;;-144.37;100.00
36258;BME280;22294;52.044;4.582;2023-02-22T06:51:10;77173.94;;;-144.37;100.00
36258;BME280;22294;52.044;4.582;2023-02-22T06:53:36;77184.16;;;-144.37;100.00
36258;BME280;22294;52.044;4.582;2023-02-22T06:56:01;77184.16;;;-144.37;100.00
36258;BME280;22294;52.044;4.582;2023-02-22T06:58:27;77175.97;;;-144.37;100.00
36258;BME280;22294;52.044;4.582;2023-02-22T07:00:53;77178.03;;;-144.37;100.00
36258;BME280;22294;52.044;4.582;2023-02-22T07:03:18;77184.16;;;-144.37;100.00
36258;BME280;22294;52.044;4.582;2023-02-22T07:05:44;77188.25;;;-144.37;100.00
36258;BME280;22294;52.044;4.582;2023-02-22T07:08:10;77182.13;;;-144.37;100.00
36258;BME280;22294;52.044;4.582;2023-02-22T07:10:37;77167.81;;;-144.37;100.00
36258;BME280;22294;52.044;4.582;2023-02-22T07:13:03;77163.72;;;-144.37;100.00
36258;BME280;22294;52.044;4.582;2023-02-22T07:15:30;77161.66;;;-144.37;100.00
36258;BME280;22294;52.044;4.582;2023-02-22T07:17:56;77165.75;;;-144.37;100.00
36258;BME280;22294;52.044;4.582;2023-02-22T07:20:23;77151.44;;;-144.37;100.00
36258;BME280;22294;52.044;4.582;2023-02-22T07:22:48;77147.34;;;-144.37;100.00
36258;BME280;22294;52.044;4.582;2023-02-22T07:25:14;77149.41;;;-144.37;100.00
36258;BME280;22294;52.044;4.582;2023-02-22T07:27:40;77137.13;;;-144.37;100.00
36258;BME280;22294;52.044;4.582;2023-02-22T07:30:17;77126.88;;;-144.37;100.00
36258;BME280;22294;52.044;4.582;2023-02-22T07:32:44;77124.84;;;-144.37;100.00
36258;BME280;22294;52.044;4.582;2023-02-22T07:35:17;77139.16;;;-144.37;100.00
36258;BME280;22294;52.044;4.582;2023-02-22T07:37:43;77128.94;;;-144.37;100.00
36258;BME280;22294;52.044;4.582;2023-02-22T07:40:09;77128.94;;;-144.37;100.00
36258;BME280;22294;52.044;4.582;2023-02-22T07:42:50;77130.97;;;-144.37;100.00
36258;BME280;22294;52.044;4.582;2023-02-22T07:45:15;77145.31;;;-144.37;100.00
36258;BME280;22294;52.044;4.582;2023-02-22T07:47:40;77151.44;;;-144.37;100.00
36258;BME280;22294;52.044;4.582;2023-02-22T07:50:06;77159.63;;;-144.37;100.00
36258;BME280;22294;52.044;4.582;2023-02-22T07:52:31;77159.63;;;-144.37;100.00
36258;BME280;22294;52.044;4.582;2023-02-22T07:54:56;77163.72;;;-144.37;100.00
36258;BME280;22294;52.044;4.582;2023-02-22T07:57:22;77163.72;;;-144.37;100.00
36258;BME280;22294;52.044;4.582;2023-02-22T07:59:48;77143.25;;;-144.37;100.00
36258;BME280;22294;52.044;4.582;2023-02-22T08:02:15;77151.44;;;-144.37;100.00
36258;BME280;22294;52.044;4.582;2023-02-22T08:04:41;77151.44;;;-144.37;100.00
36258;BME280;22294;52.044;4.582;2023-02-22T08:07:06;77145.31;;;-144.37;100.00
36258;BME280;22294;52.044;4.582;2023-02-22T08:09:31;77143.25;;;-144.37;100.00
36258;BME280;22294;52.044;4.582;2023-02-22T08:11:57;77141.22;;;-144.37;100.00
36258;BME280;22294;52.044;4.582;2023-02-22T08:14:22;77133.03;;;-144.37;100.00
36258;BME280;22294;52.044;4.582;2023-02-22T08:16:47;77122.81;;;-144.37;100.00
36258;BME280;22294;52.044;4.582;2023-02-22T08:19:12;77122.81;;;-144.37;100.00
36258;BME280;22294;52.044;4.582;2023-02-22T08:21:38;77118.72;;;-144.37;100.00
36258;BME280;22294;52.044;4.582;2023-02-22T08:24:03;77100.28;;;-144.37;100.00
36258;BME280;22294;52.044;4.582;2023-02-22T08:26:29;77106.44;;;-144.37;100.00
36258;BME280;22294;52.044;4.582;2023-02-22T08:28:54;77116.66;;;-144.37;100.00
36258;BME280;22294;52.044;4.582;2023-02-22T08:31:19;77116.66;;;-144.37;100.00
36258;BME280;22294;52.044;4.582;2023-02-22T08:33:48;77090.06;;;-144.37;100.00
36258;BME280;22294;52.044;4.582;2023-02-22T08:36:14;77090.06;;;-144.37;100.00
36258;BME280;22294;52.044;4.582;2023-02-22T08:38:40;77108.47;;;-144.37;100.00
36258;BME280;22294;52.044;4.582;2023-02-22T08:41:05;77100.28;;;-144.37;100.00
36258;BME280;22294;52.044;4.582;2023-02-22T08:43:31;77092.13;;;-144.37;100.00
36258;BME280;22294;52.044;4.582;2023-02-22T08:45:56;77088.03;;;-144.37;100.00
36258;BME280;22294;52.044;4.582;2023-02-22T08:48:21;77098.25;;;-144.37;100.00
36258;BME280;22294;52.044;4.582;2023-02-22T08:50:47;77100.28;;;-144.37;100.00
36258;BME280;22294;52.044;4.582;2023-02-22T08:53:14;77090.06;;;-144.37;100.00
36258;BME280;22294;52.044;4.582;2023-02-22T08:55:40;77094.16;;;-144.37;100.00
36258;BME280;22294;52.044;4.582;2023-02-22T08:58:07;77079.84;;;-144.37;100.00
36258;BME280;22294;52.044;4.582;2023-02-22T09:00:34;77067.56;;;-144.37;100.00
36258;BME280;22294;52.044;4.582;2023-02-22T09:03:02;77065.53;;;-144.37;100.00
36258;BME280;22294;52.044;4.582;2023-02-22T09:05:28;77059.38;;;-144.37;100.00
36258;BME280;22294;52.044;4.582;2023-02-22T09:07:53;77049.16;;;-144.37;100.00
36258;BME280;22294;52.044;4.582;2023-02-22T09:10:22;77045.06;;;-144.37;100.00
36258;BME280;22294;52.044;4.582;2023-02-22T09:12:52;77045.06;;;-144.37;100.00
36258;BME280;22294;52.044;4.582;2023-02-22T09:15:20;77047.09;;;-144.37;100.00
36258;BME280;22294;52.044;4.582;2023-02-22T09:17:45;77038.94;;;-144.37;100.00
36258;BME280;22294;52.044;4.582;2023-02-22T09:20:11;77028.69;;;-144.37;100.00
36258;BME280;22294;52.044;4.582;2023-02-22T09:22:37;77016.44;;;-144.37;100.00
36258;BME280;22294;52.044;4.582;2023-02-22T09:25:04;77012.34;;;-144.37;100.00
36258;BME280;22294;52.044;4.582;2023-02-22T09:27:29;77002.09;;;-144.37;100.00
36258;BME280;22294;52.044;4.582;2023-02-22T09:29:55;77004.16;;;-144.37;100.00
36258;BME280;22294;52.044;4.582;2023-02-22T09:32:21;76998.00;;;-144.37;100.00
36258;BME280;22294;52.044;4.582;2023-02-22T09:34:47;76981.66;;;-144.37;100.00
36258;BME280;22294;52.044;4.582;2023-02-22T09:37:13;76967.34;;;-144.37;100.00
36258;BME280;22294;52.044;4.582;2023-02-22T09:39:38;76963.25;;;-144.37;100.00
36258;BME280;22294;52.044;4.582;2023-02-22T09:42:27;76957.09;;;-144.37;100.00
36258;BME280;22294;52.044;4.582;2023-02-22T09:45:02;76961.19;;;-144.37;100.00
36258;BME280;22294;52.044;4.582;2023-02-22T09:47:43;76967.34;;;-144.37;100.00
36258;BME280;22294;52.044;4.582;2023-02-22T09:50:13;76961.19;;;-144.37;100.00
36258;BME280;22294;52.044;4.582;2023-02-22T09:55:46;76948.91;;;-144.37;100.00
36258;BME280;22294;52.044;4.582;2023-02-22T09:58:34;76940.75;;;-144.37;100.00
36258;BME280;22294;52.044;4.582;2023-02-22T10:01:30;76924.38;;;-144.37;100.00
36258;BME280;22294;52.044;4.582;2023-02-22T10:04:03;76922.34;;;-144.37;100.00
36258;BME280;22294;52.044;4.582;2023-02-22T10:06:31;76910.06;;;-144.37;100.00
36258;BME280;22294;52.044;4.582;2023-02-22T10:09:00;76897.78;;;-144.37;100.00
36258;BME280;22294;52.044;4.582;2023-02-22T10:11:39;76901.88;;;-144.37;100.00
36258;BME280;22294;52.044;4.582;2023-02-22T10:17:25;76916.19;;;-144.37;100.00
36258;BME280;22294;52.044;4.582;2023-02-22T10:22:53;76918.25;;;-144.37;100.00
36258;BME280;22294;52.044;4.582;2023-02-22T10:25:23;76901.88;;;-144.37;100.00
36258;BME280;22294;52.044;4.582;2023-02-22T10:30:34;76891.66;;;-144.37;100.00
36258;BME280;22294;52.044;4.582;2023-02-22T10:33:14;76885.50;;;-144.37;100.00
36258;BME280;22294;52.044;4.582;2023-02-22T10:35:43;76893.69;;;-144.37;100.00
36258;BME280;22294;52.044;4.582;2023-02-22T10:40:57;76875.28;;;-144.37;100.00
36258;BME280;22294;52.044;4.582;2023-02-22T10:43:25;76865.06;;;-144.37;100.00
36258;BME280;22294;52.044;4.582;2023-02-22T10:45:59;76858.91;;;-144.37;100.00
36258;BME280;22294;52.044;4.582;2023-02-22T10:48:27;76844.59;;;-144.37;100.00
36258;BME280;22294;52.044;4.582;2023-02-22T10:50:58;76826.19;;;-144.37;100.00
36258;BME280;22294;52.044;4.582;2023-02-22T10:53:26;76815.97;;;-144.37;100.00
36258;BME280;22294;52.044;4.582;2023-02-22T10:58:45;76801.66;;;-144.37;100.00
36258;BME280;22294;52.044;4.582;2023-02-22T11:04:17;76764.81;;;-144.37;100.00
36258;BME280;22294;52.044;4.582;2023-02-22T11:06:46;76756.66;;;-144.37;100.00
36258;BME280;22294;52.044;4.582;2023-02-22T11:09:17;76742.31;;;-144.37;100.00
36258;BME280;22294;52.044;4.582;2023-02-22T11:11:45;76730.06;;;-144.37;100.00
36258;BME280;22294;52.044;4.582;2023-02-22T11:14:24;76711.66;;;-144.37;100.00
36258;BME280;22294;52.044;4.582;2023-02-22T11:16:51;76707.56;;;-144.37;100.00
36258;BME280;22294;52.044;4.582;2023-02-22T11:19:20;76695.28;;;-144.37;100.00
36258;BME280;22294;52.044;4.582;2023-02-22T11:21:48;76691.19;;;-144.37;99.69
36258;BME280;22294;52.044;4.582;2023-02-22T11:24:17;76693.22;;;-144.37;100.00
36258;BME280;22294;52.044;4.582;2023-02-22T11:27:05;76689.16;;;-144.37;99.73
36258;BME280;22294;52.044;4.582;2023-02-22T11:29:41;76687.09;;;-144.37;100.00
36258;BME280;22294;52.044;4.582;2023-02-22T11:32:18;76685.06;;;-144.37;99.40
36258;BME280;22294;52.044;4.582;2023-02-22T11:34:47;76680.97;;;-144.37;99.71
36258;BME280;22294;52.044;4.582;2023-02-22T11:37:34;76666.66;;;-144.37;100.00
36258;BME280;22294;52.044;4.582;2023-02-22T11:40:15;76668.69;;;-144.37;100.00
36258;BME280;22294;52.044;4.582;2023-02-22T11:42:45;76652.31;;;-144.37;97.52
36258;BME280;22294;52.044;4.582;2023-02-22T11:45:21;76658.47;;;-144.37;97.55
36258;BME280;22294;52.044;4.582;2023-02-22T11:47:55;76652.31;;;-144.37;98.01
36258;BME280;22294;52.044;4.582;2023-02-22T11:50:32;76650.28;;;-144.37;97.17
36258;BME280;22294;52.044;4.582;2023-02-22T11:53:22;76635.97;;;-144.37;97.73
36258;BME280;22294;52.044;4.582;2023-02-22T11:58:49;76627.78;;;-144.37;97.25
36258;BME280;22294;52.044;4.582;2023-02-22T12:01:23;76623.69;;;-144.37;97.48
36258;BME280;22294;52.044;4.582;2023-02-22T12:04:16;76621.66;;;-144.37;97.51
36258;BME280;22294;52.044;4.582;2023-02-22T12:15:27;76595.06;;;-144.37;95.38
36258;BME280;22294;52.044;4.582;2023-02-22T12:18:06;76586.88;;;-144.37;94.68
36258;BME280;22294;52.044;4.582;2023-02-22T12:20:39;76578.69;;;-144.37;94.35
36258;BME280;22294;52.044;4.582;2023-02-22T12:23:18;76566.41;;;-144.37;93.51
36258;BME280;22294;52.044;4.582;2023-02-22T12:28:34;76562.31;;;-144.37;92.86
36258;BME280;22294;52.044;4.582;2023-02-22T12:31:22;76550.06;;;-144.37;92.34
36258;BME280;22294;52.044;4.582;2023-02-22T12:34:16;76554.16;;;-144.37;92.37
36258;BME280;22294;52.044;4.582;2023-02-22T12:36:54;76543.91;;;-144.37;92.70
36258;BME280;22294;52.044;4.582;2023-02-22T12:42:29;76535.75;;;-144.37;92.17
36258;BME280;22294;52.044;4.582;2023-02-22T12:45:03;76525.50;;;-144.37;92.19
36258;BME280;22294;52.044;4.582;2023-02-22T12:47:39;76529.59;;;-144.37;90.21
36258;BME280;22294;52.044;4.582;2023-02-22T12:50:16;76527.56;;;-144.37;89.90
36258;BME280;22294;52.044;4.582;2023-02-22T12:53:05;76533.69;;;-144.37;90.24
36258;BME280;22294;52.044;4.582;2023-02-22T12:58:44;76527.56;;;-144.37;90.14
36258;BME280;22294;52.044;4.582;2023-02-22T13:01:15;76531.66;;;-144.37;88.91
36258;BME280;22294;52.044;4.582;2023-02-22T13:03:44;76525.50;;;-144.37;89.76
36258;BME280;22294;52.044;4.582;2023-02-22T13:11:56;76515.28;;;-144.37;90.57
36258;BME280;22294;52.044;4.582;2023-02-22T13:14:32;76523.47;;;-144.37;90.76
36258;BME280;22294;52.044;4.582;2023-02-22T13:17:15;76517.34;;;-144.37;90.58
36258;BME280;22294;52.044;4.582;2023-02-22T13:20:07;76517.34;;;-144.37;89.95
36258;BME280;22294;52.044;4.582;2023-02-22T13:22:57;76513.25;;;-144.37;90.57
36258;BME280;22294;52.044;4.582;2023-02-22T13:25:36;76513.25;;;-144.37;90.83
36258;BME280;22294;52.044;4.582;2023-02-22T13:28:18;76500.97;;;-144.37;91.11
36258;BME280;22294;52.044;4.582;2023-02-22T13:33:39;76498.91;;;-144.37;90.46
36258;BME280;22294;52.044;4.582;2023-02-22T13:42:18;76488.69;;;-144.37;90.29
36258;BME280;22294;52.044;4.582;2023-02-22T13:45:00;76486.66;;;-144.37;90.69
36258;BME280;22294;52.044;4.582;2023-02-22T13:52:51;76486.66;;;-144.37;91.18
36258;BME280;22294;52.044;4.582;2023-02-22T13:55:25;76484.59;;;-144.37;91.58
36258;BME280;22294;52.044;4.582;2023-02-22T13:58:08;76472.34;;;-144.37;91.51
36258;BME280;22294;52.044;4.582;2023-02-22T14:00:45;76482.56;;;-144.37;91.71
36258;BME280;22294;52.044;4.582;2023-02-22T14:10:54;76486.66;;;-144.37;91.25
36258;BME280;22294;52.044;4.582;2023-02-22T14:13:24;76488.69;;;-144.37;91.24
36258;BME280;22294;52.044;4.582;2023-02-22T14:18:22;76484.59;;;-144.37;91.98
36258;BME280;22294;52.044;4.582;2023-02-22T14:21:05;76474.38;;;-144.37;92.06
36258;BME280;22294;52.044;4.582;2023-02-22T14:23:48;76478.47;;;-144.37;92.88
36258;BME280;22294;52.044;4.582;2023-02-22T14:26:31;76484.59;;;-144.37;92.96